sensor_id;sensor_type;location;lat;lon;timestamp;P1;durP1;ratioP1;P2;durP2;ratioP2
14040;SDS011;7095;51.388;6.196;2022-12-24T00:01:35;31.37;;;6.03;;
14040;SDS011;7095;51.388;6.196;2022-12-24T00:04:04;41.77;;;6.27;;
14040;SDS011;7095;51.388;6.196;2022-12-24T00:06:33;37.03;;;6.93;;
14040;SDS011;7095;51.388;6.196;2022-12-24T00:09:02;33.17;;;6.30;;
14040;SDS011;7095;51.388;6.196;2022-12-24T00:11:32;37.77;;;6.07;;
14040;SDS011;7095;51.388;6.196;2022-12-24T00:14:01;31.33;;;6.63;;
14040;SDS011;7095;51.388;6.196;2022-12-24T00:16:29;38.13;;;6.13;;
14040;SDS011;7095;51.388;6.196;2022-12-24T00:18:58;32.57;;;6.47;;
14040;SDS011;7095;51.388;6.196;2022-12-24T00:21:27;36.37;;;7.57;;
14040;SDS011;7095;51.388;6.196;2022-12-24T00:23:55;37.10;;;6.40;;
14040;SDS011;7095;51.388;6.196;2022-12-24T00:26:24;45.80;;;7.90;;
14040;SDS011;7095;51.388;6.196;2022-12-24T00:28:55;36.90;;;7.90;;
14040;SDS011;7095;51.388;6.196;2022-12-24T00:31:24;45.30;;;7.77;;
14040;SDS011;7095;51.388;6.196;2022-12-24T00:33:53;34.63;;;6.30;;
14040;SDS011;7095;51.388;6.196;2022-12-24T00:36:22;41.40;;;6.73;;
14040;SDS011;7095;51.388;6.196;2022-12-24T00:38:50;31.20;;;5.87;;
14040;SDS011;7095;51.388;6.196;2022-12-24T00:41:19;48.47;;;8.50;;
14040;SDS011;7095;51.388;6.196;2022-12-24T00:43:57;35.23;;;6.73;;
14040;SDS011;7095;51.388;6.196;2022-12-24T00:46:27;42.83;;;7.27;;
14040;SDS011;7095;51.388;6.196;2022-12-24T00:48:57;40.63;;;7.17;;
14040;SDS011;7095;51.388;6.196;2022-12-24T00:51:26;28.93;;;6.53;;
14040;SDS011;7095;51.388;6.196;2022-12-24T00:53:55;32.87;;;6.47;;
14040;SDS011;7095;51.388;6.196;2022-12-24T00:56:24;41.83;;;7.00;;
14040;SDS011;7095;51.388;6.196;2022-12-24T00:58:53;41.40;;;7.10;;
14040;SDS011;7095;51.388;6.196;2022-12-24T01:01:23;36.73;;;7.03;;
14040;SDS011;7095;51.388;6.196;2022-12-24T01:03:53;42.43;;;6.37;;
14040;SDS011;7095;51.388;6.196;2022-12-24T01:06:42;30.90;;;7.27;;
14040;SDS011;7095;51.388;6.196;2022-12-24T01:09:10;41.97;;;7.40;;
14040;SDS011;7095;51.388;6.196;2022-12-24T01:11:39;34.80;;;6.10;;
14040;SDS011;7095;51.388;6.196;2022-12-24T01:14:07;34.50;;;6.97;;
14040;SDS011;7095;51.388;6.196;2022-12-24T01:16:37;31.30;;;6.90;;
14040;SDS011;7095;51.388;6.196;2022-12-24T01:19:06;35.57;;;6.20;;
14040;SDS011;7095;51.388;6.196;2022-12-24T01:21:34;37.20;;;6.90;;
14040;SDS011;7095;51.388;6.196;2022-12-24T01:24:03;33.37;;;6.17;;
14040;SDS011;7095;51.388;6.196;2022-12-24T01:26:32;39.90;;;6.87;;
14040;SDS011;7095;51.388;6.196;2022-12-24T01:29:00;41.40;;;6.90;;
14040;SDS011;7095;51.388;6.196;2022-12-24T01:31:29;29.37;;;6.27;;
14040;SDS011;7095;51.388;6.196;2022-12-24T01:33:59;38.73;;;7.50;;
14040;SDS011;7095;51.388;6.196;2022-12-24T01:36:28;37.00;;;6.87;;
14040;SDS011;7095;51.388;6.196;2022-12-24T01:38:57;43.17;;;7.03;;
14040;SDS011;7095;51.388;6.196;2022-12-24T01:41:25;46.73;;;6.77;;
14040;SDS011;7095;51.388;6.196;2022-12-24T01:44:18;44.27;;;7.17;;
14040;SDS011;7095;51.388;6.196;2022-12-24T01:46:51;38.63;;;7.20;;
14040;SDS011;7095;51.388;6.196;2022-12-24T01:49:24;39.23;;;7.00;;
14040;SDS011;7095;51.388;6.196;2022-12-24T01:51:53;35.80;;;7.67;;
14040;SDS011;7095;51.388;6.196;2022-12-24T01:54:27;41.00;;;6.87;;
14040;SDS011;7095;51.388;6.196;2022-12-24T01:57:00;50.40;;;8.03;;
14040;SDS011;7095;51.388;6.196;2022-12-24T01:59:32;35.67;;;6.67;;
14040;SDS011;7095;51.388;6.196;2022-12-24T02:02:03;38.17;;;6.83;;
14040;SDS011;7095;51.388;6.196;2022-12-24T02:04:35;45.30;;;8.10;;
14040;SDS011;7095;51.388;6.196;2022-12-24T02:07:07;48.50;;;8.53;;
14040;SDS011;7095;51.388;6.196;2022-12-24T02:09:36;46.77;;;6.90;;
14040;SDS011;7095;51.388;6.196;2022-12-24T02:12:06;52.77;;;7.17;;
14040;SDS011;7095;51.388;6.196;2022-12-24T02:14:35;40.93;;;7.27;;
14040;SDS011;7095;51.388;6.196;2022-12-24T02:17:06;46.80;;;7.57;;
14040;SDS011;7095;51.388;6.196;2022-12-24T02:23:06;31.63;;;6.97;;
14040;SDS011;7095;51.388;6.196;2022-12-24T02:25:55;36.53;;;7.43;;
14040;SDS011;7095;51.388;6.196;2022-12-24T02:28:43;39.53;;;6.93;;
14040;SDS011;7095;51.388;6.196;2022-12-24T02:31:29;38.40;;;8.03;;
14040;SDS011;7095;51.388;6.196;2022-12-24T02:34:05;34.63;;;6.23;;
14040;SDS011;7095;51.388;6.196;2022-12-24T02:36:38;45.53;;;7.80;;
14040;SDS011;7095;51.388;6.196;2022-12-24T02:39:12;34.83;;;7.63;;
14040;SDS011;7095;51.388;6.196;2022-12-24T02:41:49;37.93;;;6.50;;
14040;SDS011;7095;51.388;6.196;2022-12-24T02:44:39;40.07;;;6.63;;
14040;SDS011;7095;51.388;6.196;2022-12-24T02:47:13;41.63;;;7.00;;
14040;SDS011;7095;51.388;6.196;2022-12-24T02:49:46;41.93;;;7.03;;
14040;SDS011;7095;51.388;6.196;2022-12-24T02:52:28;38.47;;;6.93;;
14040;SDS011;7095;51.388;6.196;2022-12-24T02:55:00;41.90;;;6.73;;
14040;SDS011;7095;51.388;6.196;2022-12-24T02:57:34;45.23;;;7.17;;
14040;SDS011;7095;51.388;6.196;2022-12-24T03:00:12;40.97;;;6.53;;
14040;SDS011;7095;51.388;6.196;2022-12-24T03:02:51;43.63;;;7.93;;
14040;SDS011;7095;51.388;6.196;2022-12-24T03:05:35;40.40;;;6.37;;
14040;SDS011;7095;51.388;6.196;2022-12-24T03:08:11;36.43;;;6.80;;
14040;SDS011;7095;51.388;6.196;2022-12-24T03:10:45;31.43;;;6.30;;
14040;SDS011;7095;51.388;6.196;2022-12-24T03:13:29;36.83;;;7.53;;
14040;SDS011;7095;51.388;6.196;2022-12-24T03:15:58;34.90;;;6.03;;
14040;SDS011;7095;51.388;6.196;2022-12-24T03:18:31;26.07;;;5.97;;
14040;SDS011;7095;51.388;6.196;2022-12-24T03:21:00;38.37;;;6.33;;
14040;SDS011;7095;51.388;6.196;2022-12-24T03:23:34;37.23;;;6.97;;
14040;SDS011;7095;51.388;6.196;2022-12-24T03:26:04;32.40;;;6.33;;
14040;SDS011;7095;51.388;6.196;2022-12-24T03:28:36;35.10;;;7.93;;
14040;SDS011;7095;51.388;6.196;2022-12-24T03:31:07;34.17;;;6.43;;
14040;SDS011;7095;51.388;6.196;2022-12-24T03:33:38;31.87;;;6.67;;
14040;SDS011;7095;51.388;6.196;2022-12-24T03:36:07;30.27;;;5.63;;
14040;SDS011;7095;51.388;6.196;2022-12-24T03:38:36;33.93;;;5.80;;
14040;SDS011;7095;51.388;6.196;2022-12-24T03:41:05;41.47;;;6.43;;
14040;SDS011;7095;51.388;6.196;2022-12-24T03:43:34;31.57;;;6.73;;
14040;SDS011;7095;51.388;6.196;2022-12-24T03:46:03;33.73;;;6.57;;
14040;SDS011;7095;51.388;6.196;2022-12-24T03:48:33;36.27;;;6.10;;
14040;SDS011;7095;51.388;6.196;2022-12-24T03:51:04;32.80;;;5.57;;
14040;SDS011;7095;51.388;6.196;2022-12-24T03:53:32;30.67;;;5.93;;
14040;SDS011;7095;51.388;6.196;2022-12-24T03:56:01;26.63;;;5.00;;
14040;SDS011;7095;51.388;6.196;2022-12-24T03:58:30;27.47;;;5.43;;
14040;SDS011;7095;51.388;6.196;2022-12-24T04:00:58;32.90;;;5.67;;
14040;SDS011;7095;51.388;6.196;2022-12-24T04:03:27;32.70;;;5.50;;
14040;SDS011;7095;51.388;6.196;2022-12-24T04:06:00;22.50;;;4.67;;
14040;SDS011;7095;51.388;6.196;2022-12-24T04:08:30;28.10;;;5.13;;
14040;SDS011;7095;51.388;6.196;2022-12-24T04:10:59;18.73;;;4.37;;
14040;SDS011;7095;51.388;6.196;2022-12-24T04:13:35;31.43;;;6.77;;
14040;SDS011;7095;51.388;6.196;2022-12-24T04:16:04;21.97;;;5.23;;
14040;SDS011;7095;51.388;6.196;2022-12-24T04:18:35;23.90;;;5.03;;
14040;SDS011;7095;51.388;6.196;2022-12-24T04:21:04;26.73;;;5.33;;
14040;SDS011;7095;51.388;6.196;2022-12-24T04:23:35;27.40;;;5.40;;
14040;SDS011;7095;51.388;6.196;2022-12-24T04:26:07;26.73;;;5.33;;
14040;SDS011;7095;51.388;6.196;2022-12-24T04:28:37;28.60;;;5.17;;
14040;SDS011;7095;51.388;6.196;2022-12-24T04:31:07;21.03;;;4.93;;
14040;SDS011;7095;51.388;6.196;2022-12-24T04:33:37;30.63;;;5.77;;
14040;SDS011;7095;51.388;6.196;2022-12-24T04:36:06;30.27;;;5.27;;
14040;SDS011;7095;51.388;6.196;2022-12-24T04:38:37;22.30;;;5.40;;
14040;SDS011;7095;51.388;6.196;2022-12-24T04:41:06;20.67;;;5.17;;
14040;SDS011;7095;51.388;6.196;2022-12-24T04:43:40;26.77;;;6.23;;
14040;SDS011;7095;51.388;6.196;2022-12-24T04:46:10;24.73;;;4.83;;
14040;SDS011;7095;51.388;6.196;2022-12-24T04:48:40;25.03;;;4.57;;
14040;SDS011;7095;51.388;6.196;2022-12-24T04:51:10;23.70;;;5.23;;
14040;SDS011;7095;51.388;6.196;2022-12-24T04:53:40;33.40;;;6.07;;
14040;SDS011;7095;51.388;6.196;2022-12-24T04:56:10;27.73;;;5.47;;
14040;SDS011;7095;51.388;6.196;2022-12-24T04:58:40;27.20;;;6.27;;
14040;SDS011;7095;51.388;6.196;2022-12-24T05:01:11;32.97;;;6.93;;
14040;SDS011;7095;51.388;6.196;2022-12-24T05:03:41;26.27;;;5.40;;
14040;SDS011;7095;51.388;6.196;2022-12-24T05:06:11;25.33;;;4.70;;
14040;SDS011;7095;51.388;6.196;2022-12-24T05:08:42;28.60;;;5.37;;
14040;SDS011;7095;51.388;6.196;2022-12-24T05:11:10;23.47;;;5.90;;
14040;SDS011;7095;51.388;6.196;2022-12-24T05:13:41;19.20;;;4.50;;
14040;SDS011;7095;51.388;6.196;2022-12-24T05:16:13;24.77;;;4.83;;
14040;SDS011;7095;51.388;6.196;2022-12-24T05:18:45;23.93;;;5.00;;
14040;SDS011;7095;51.388;6.196;2022-12-24T05:21:15;23.73;;;4.93;;
14040;SDS011;7095;51.388;6.196;2022-12-24T05:23:46;24.47;;;4.80;;
14040;SDS011;7095;51.388;6.196;2022-12-24T05:26:33;31.67;;;5.47;;
14040;SDS011;7095;51.388;6.196;2022-12-24T05:29:04;23.50;;;5.07;;
14040;SDS011;7095;51.388;6.196;2022-12-24T05:31:33;28.30;;;5.73;;
14040;SDS011;7095;51.388;6.196;2022-12-24T05:34:02;33.03;;;6.50;;
14040;SDS011;7095;51.388;6.196;2022-12-24T05:36:31;21.73;;;4.77;;
14040;SDS011;7095;51.388;6.196;2022-12-24T05:39:04;32.93;;;5.10;;
14040;SDS011;7095;51.388;6.196;2022-12-24T05:41:39;31.23;;;5.00;;
14040;SDS011;7095;51.388;6.196;2022-12-24T05:44:07;27.23;;;6.20;;
14040;SDS011;7095;51.388;6.196;2022-12-24T05:46:36;24.30;;;5.60;;
14040;SDS011;7095;51.388;6.196;2022-12-24T05:49:05;30.60;;;6.03;;
14040;SDS011;7095;51.388;6.196;2022-12-24T05:51:33;32.63;;;5.90;;
14040;SDS011;7095;51.388;6.196;2022-12-24T05:54:03;33.10;;;6.20;;
14040;SDS011;7095;51.388;6.196;2022-12-24T05:56:32;25.90;;;5.63;;
14040;SDS011;7095;51.388;6.196;2022-12-24T05:59:01;26.87;;;5.50;;
14040;SDS011;7095;51.388;6.196;2022-12-24T06:01:29;32.00;;;5.60;;
14040;SDS011;7095;51.388;6.196;2022-12-24T06:03:58;30.73;;;5.70;;
14040;SDS011;7095;51.388;6.196;2022-12-24T06:06:27;24.70;;;5.37;;
14040;SDS011;7095;51.388;6.196;2022-12-24T06:08:56;25.10;;;5.50;;
14040;SDS011;7095;51.388;6.196;2022-12-24T06:11:26;28.33;;;5.63;;
14040;SDS011;7095;51.388;6.196;2022-12-24T06:13:55;30.27;;;5.80;;
14040;SDS011;7095;51.388;6.196;2022-12-24T06:16:26;33.33;;;5.77;;
14040;SDS011;7095;51.388;6.196;2022-12-24T06:18:55;37.63;;;5.77;;
14040;SDS011;7095;51.388;6.196;2022-12-24T06:21:23;23.60;;;5.60;;
14040;SDS011;7095;51.388;6.196;2022-12-24T06:23:52;28.90;;;6.43;;
14040;SDS011;7095;51.388;6.196;2022-12-24T06:26:21;28.17;;;5.30;;
14040;SDS011;7095;51.388;6.196;2022-12-24T06:28:51;32.60;;;5.93;;
14040;SDS011;7095;51.388;6.196;2022-12-24T06:31:21;32.07;;;6.37;;
14040;SDS011;7095;51.388;6.196;2022-12-24T06:33:50;23.67;;;5.10;;
14040;SDS011;7095;51.388;6.196;2022-12-24T06:36:20;29.67;;;5.50;;
14040;SDS011;7095;51.388;6.196;2022-12-24T06:38:50;33.33;;;6.70;;
14040;SDS011;7095;51.388;6.196;2022-12-24T06:41:21;32.17;;;6.37;;
14040;SDS011;7095;51.388;6.196;2022-12-24T06:43:52;24.57;;;5.30;;
14040;SDS011;7095;51.388;6.196;2022-12-24T06:46:20;20.70;;;5.00;;
14040;SDS011;7095;51.388;6.196;2022-12-24T06:48:50;31.77;;;5.77;;
14040;SDS011;7095;51.388;6.196;2022-12-24T06:51:18;22.13;;;5.13;;
14040;SDS011;7095;51.388;6.196;2022-12-24T06:53:47;28.83;;;5.57;;
14040;SDS011;7095;51.388;6.196;2022-12-24T06:56:18;34.83;;;6.67;;
14040;SDS011;7095;51.388;6.196;2022-12-24T06:58:47;36.33;;;5.47;;
14040;SDS011;7095;51.388;6.196;2022-12-24T07:01:18;34.40;;;6.77;;
14040;SDS011;7095;51.388;6.196;2022-12-24T07:03:47;25.97;;;5.73;;
14040;SDS011;7095;51.388;6.196;2022-12-24T07:06:17;29.70;;;6.23;;
14040;SDS011;7095;51.388;6.196;2022-12-24T07:08:47;29.53;;;5.83;;
14040;SDS011;7095;51.388;6.196;2022-12-24T07:11:15;36.40;;;6.13;;
14040;SDS011;7095;51.388;6.196;2022-12-24T07:13:44;36.20;;;6.73;;
14040;SDS011;7095;51.388;6.196;2022-12-24T07:16:14;33.53;;;6.93;;
14040;SDS011;7095;51.388;6.196;2022-12-24T07:18:45;37.77;;;7.03;;
14040;SDS011;7095;51.388;6.196;2022-12-24T07:21:13;28.70;;;6.00;;
14040;SDS011;7095;51.388;6.196;2022-12-24T07:23:42;45.43;;;7.13;;
14040;SDS011;7095;51.388;6.196;2022-12-24T07:26:10;34.80;;;6.73;;
14040;SDS011;7095;51.388;6.196;2022-12-24T07:28:39;36.83;;;6.63;;
14040;SDS011;7095;51.388;6.196;2022-12-24T07:31:07;30.77;;;6.50;;
14040;SDS011;7095;51.388;6.196;2022-12-24T07:33:36;30.27;;;6.47;;
14040;SDS011;7095;51.388;6.196;2022-12-24T07:36:07;34.03;;;6.80;;
14040;SDS011;7095;51.388;6.196;2022-12-24T07:38:37;35.40;;;7.03;;
14040;SDS011;7095;51.388;6.196;2022-12-24T07:41:05;35.43;;;6.63;;
14040;SDS011;7095;51.388;6.196;2022-12-24T07:43:34;33.03;;;6.10;;
14040;SDS011;7095;51.388;6.196;2022-12-24T07:46:03;38.00;;;6.73;;
14040;SDS011;7095;51.388;6.196;2022-12-24T07:48:32;33.80;;;7.03;;
14040;SDS011;7095;51.388;6.196;2022-12-24T07:51:00;40.27;;;8.37;;
14040;SDS011;7095;51.388;6.196;2022-12-24T07:53:30;36.60;;;6.77;;
14040;SDS011;7095;51.388;6.196;2022-12-24T07:55:59;41.90;;;7.30;;
14040;SDS011;7095;51.388;6.196;2022-12-24T07:58:36;32.87;;;6.67;;
14040;SDS011;7095;51.388;6.196;2022-12-24T08:01:04;36.33;;;7.27;;
14040;SDS011;7095;51.388;6.196;2022-12-24T08:03:33;40.83;;;6.90;;
14040;SDS011;7095;51.388;6.196;2022-12-24T08:06:02;35.33;;;6.23;;
14040;SDS011;7095;51.388;6.196;2022-12-24T08:08:32;29.43;;;7.70;;
14040;SDS011;7095;51.388;6.196;2022-12-24T08:11:01;36.63;;;7.30;;
14040;SDS011;7095;51.388;6.196;2022-12-24T08:13:32;38.93;;;7.60;;
14040;SDS011;7095;51.388;6.196;2022-12-24T08:16:01;40.67;;;5.93;;
14040;SDS011;7095;51.388;6.196;2022-12-24T08:18:30;36.87;;;6.93;;
14040;SDS011;7095;51.388;6.196;2022-12-24T08:21:01;36.40;;;6.43;;
14040;SDS011;7095;51.388;6.196;2022-12-24T08:23:30;43.63;;;7.07;;
14040;SDS011;7095;51.388;6.196;2022-12-24T08:26:00;33.90;;;6.10;;
14040;SDS011;7095;51.388;6.196;2022-12-24T08:28:28;39.60;;;7.17;;
14040;SDS011;7095;51.388;6.196;2022-12-24T08:30:57;40.43;;;7.90;;
14040;SDS011;7095;51.388;6.196;2022-12-24T08:33:26;33.53;;;6.00;;
14040;SDS011;7095;51.388;6.196;2022-12-24T08:35:55;30.17;;;6.30;;
14040;SDS011;7095;51.388;6.196;2022-12-24T08:38:23;32.93;;;6.87;;
14040;SDS011;7095;51.388;6.196;2022-12-24T08:40:52;35.17;;;7.13;;
14040;SDS011;7095;51.388;6.196;2022-12-24T08:43:23;44.33;;;6.70;;
14040;SDS011;7095;51.388;6.196;2022-12-24T08:45:52;36.67;;;7.80;;
14040;SDS011;7095;51.388;6.196;2022-12-24T08:48:21;27.97;;;7.80;;
14040;SDS011;7095;51.388;6.196;2022-12-24T08:50:49;33.43;;;6.97;;
14040;SDS011;7095;51.388;6.196;2022-12-24T08:53:18;26.97;;;7.33;;
14040;SDS011;7095;51.388;6.196;2022-12-24T08:55:46;31.97;;;5.30;;
14040;SDS011;7095;51.388;6.196;2022-12-24T08:58:21;37.00;;;6.83;;
14040;SDS011;7095;51.388;6.196;2022-12-24T09:00:51;36.73;;;6.50;;
14040;SDS011;7095;51.388;6.196;2022-12-24T09:03:20;41.97;;;6.77;;
14040;SDS011;7095;51.388;6.196;2022-12-24T09:05:53;32.10;;;6.27;;
14040;SDS011;7095;51.388;6.196;2022-12-24T09:08:22;33.37;;;6.50;;
14040;SDS011;7095;51.388;6.196;2022-12-24T09:10:51;35.87;;;8.20;;
14040;SDS011;7095;51.388;6.196;2022-12-24T09:13:19;38.60;;;7.87;;
14040;SDS011;7095;51.388;6.196;2022-12-24T09:15:53;43.60;;;8.50;;
14040;SDS011;7095;51.388;6.196;2022-12-24T09:18:22;35.13;;;6.13;;
14040;SDS011;7095;51.388;6.196;2022-12-24T09:20:51;35.37;;;6.43;;
14040;SDS011;7095;51.388;6.196;2022-12-24T09:23:25;35.97;;;6.90;;
14040;SDS011;7095;51.388;6.196;2022-12-24T09:25:54;35.57;;;6.33;;
14040;SDS011;7095;51.388;6.196;2022-12-24T09:28:23;28.20;;;6.67;;
14040;SDS011;7095;51.388;6.196;2022-12-24T09:31:00;34.10;;;7.10;;
14040;SDS011;7095;51.388;6.196;2022-12-24T09:33:30;32.50;;;6.73;;
14040;SDS011;7095;51.388;6.196;2022-12-24T09:36:00;53.47;;;7.83;;
14040;SDS011;7095;51.388;6.196;2022-12-24T09:38:29;44.43;;;6.87;;
14040;SDS011;7095;51.388;6.196;2022-12-24T09:40:58;39.20;;;6.97;;
14040;SDS011;7095;51.388;6.196;2022-12-24T09:43:34;36.83;;;6.93;;
14040;SDS011;7095;51.388;6.196;2022-12-24T09:46:07;32.27;;;7.30;;
14040;SDS011;7095;51.388;6.196;2022-12-24T09:48:43;38.17;;;7.20;;
14040;SDS011;7095;51.388;6.196;2022-12-24T09:51:17;39.47;;;8.07;;
14040;SDS011;7095;51.388;6.196;2022-12-24T09:53:52;32.33;;;7.03;;
14040;SDS011;7095;51.388;6.196;2022-12-24T09:56:25;33.23;;;6.57;;
14040;SDS011;7095;51.388;6.196;2022-12-24T09:58:57;34.97;;;7.27;;
14040;SDS011;7095;51.388;6.196;2022-12-24T10:01:30;49.20;;;7.57;;
14040;SDS011;7095;51.388;6.196;2022-12-24T10:04:01;37.27;;;6.37;;
14040;SDS011;7095;51.388;6.196;2022-12-24T10:06:32;36.50;;;7.63;;
14040;SDS011;7095;51.388;6.196;2022-12-24T10:09:10;43.07;;;8.30;;
14040;SDS011;7095;51.388;6.196;2022-12-24T10:11:48;42.70;;;7.50;;
14040;SDS011;7095;51.388;6.196;2022-12-24T10:14:24;42.60;;;9.23;;
14040;SDS011;7095;51.388;6.196;2022-12-24T10:17:06;42.30;;;7.80;;
14040;SDS011;7095;51.388;6.196;2022-12-24T10:19:50;34.00;;;7.37;;
14040;SDS011;7095;51.388;6.196;2022-12-24T10:22:26;36.27;;;6.90;;
14040;SDS011;7095;51.388;6.196;2022-12-24T10:25:03;35.23;;;7.57;;
14040;SDS011;7095;51.388;6.196;2022-12-24T10:27:42;36.57;;;7.17;;
14040;SDS011;7095;51.388;6.196;2022-12-24T10:30:13;36.90;;;6.83;;
14040;SDS011;7095;51.388;6.196;2022-12-24T10:32:46;38.37;;;7.20;;
14040;SDS011;7095;51.388;6.196;2022-12-24T10:35:18;33.97;;;6.53;;
14040;SDS011;7095;51.388;6.196;2022-12-24T10:37:50;38.60;;;7.97;;
14040;SDS011;7095;51.388;6.196;2022-12-24T10:40:25;41.20;;;7.70;;
14040;SDS011;7095;51.388;6.196;2022-12-24T10:42:59;42.60;;;8.00;;
14040;SDS011;7095;51.388;6.196;2022-12-24T10:45:29;44.50;;;9.07;;
14040;SDS011;7095;51.388;6.196;2022-12-24T10:48:08;43.20;;;7.93;;
14040;SDS011;7095;51.388;6.196;2022-12-24T10:50:50;46.53;;;7.93;;
14040;SDS011;7095;51.388;6.196;2022-12-24T10:53:23;35.33;;;7.03;;
14040;SDS011;7095;51.388;6.196;2022-12-24T10:56:02;47.47;;;7.90;;
14040;SDS011;7095;51.388;6.196;2022-12-24T10:58:32;31.07;;;6.80;;
14040;SDS011;7095;51.388;6.196;2022-12-24T11:01:02;36.43;;;6.97;;
14040;SDS011;7095;51.388;6.196;2022-12-24T11:03:33;44.17;;;9.47;;
14040;SDS011;7095;51.388;6.196;2022-12-24T11:06:04;43.67;;;8.17;;
14040;SDS011;7095;51.388;6.196;2022-12-24T11:08:36;41.70;;;8.63;;
14040;SDS011;7095;51.388;6.196;2022-12-24T11:11:06;33.73;;;7.03;;
14040;SDS011;7095;51.388;6.196;2022-12-24T11:13:37;43.93;;;9.13;;
14040;SDS011;7095;51.388;6.196;2022-12-24T11:16:09;36.17;;;7.87;;
14040;SDS011;7095;51.388;6.196;2022-12-24T11:18:50;38.83;;;8.50;;
14040;SDS011;7095;51.388;6.196;2022-12-24T11:21:21;33.57;;;7.33;;
14040;SDS011;7095;51.388;6.196;2022-12-24T11:23:53;40.03;;;8.77;;
14040;SDS011;7095;51.388;6.196;2022-12-24T11:26:24;42.90;;;7.53;;
14040;SDS011;7095;51.388;6.196;2022-12-24T11:29:05;35.83;;;7.33;;
14040;SDS011;7095;51.388;6.196;2022-12-24T11:31:40;35.70;;;8.17;;
14040;SDS011;7095;51.388;6.196;2022-12-24T11:34:24;35.57;;;8.00;;
14040;SDS011;7095;51.388;6.196;2022-12-24T11:36:56;38.33;;;7.90;;
14040;SDS011;7095;51.388;6.196;2022-12-24T11:39:41;37.13;;;7.60;;
14040;SDS011;7095;51.388;6.196;2022-12-24T11:42:30;39.23;;;7.53;;
14040;SDS011;7095;51.388;6.196;2022-12-24T11:45:01;35.40;;;7.50;;
14040;SDS011;7095;51.388;6.196;2022-12-24T11:47:33;34.50;;;7.43;;
14040;SDS011;7095;51.388;6.196;2022-12-24T11:50:24;39.30;;;7.27;;
14040;SDS011;7095;51.388;6.196;2022-12-24T11:52:56;41.93;;;8.13;;
14040;SDS011;7095;51.388;6.196;2022-12-24T11:55:36;43.17;;;8.17;;
14040;SDS011;7095;51.388;6.196;2022-12-24T11:58:15;34.77;;;7.03;;
14040;SDS011;7095;51.388;6.196;2022-12-24T12:00:50;36.57;;;7.33;;
14040;SDS011;7095;51.388;6.196;2022-12-24T12:03:23;41.23;;;7.67;;
14040;SDS011;7095;51.388;6.196;2022-12-24T12:05:59;40.00;;;8.47;;
14040;SDS011;7095;51.388;6.196;2022-12-24T12:08:31;33.67;;;6.60;;
14040;SDS011;7095;51.388;6.196;2022-12-24T12:11:03;33.77;;;6.90;;
14040;SDS011;7095;51.388;6.196;2022-12-24T12:13:38;47.10;;;8.23;;
14040;SDS011;7095;51.388;6.196;2022-12-24T12:16:13;39.37;;;7.73;;
14040;SDS011;7095;51.388;6.196;2022-12-24T12:18:48;30.20;;;7.47;;
14040;SDS011;7095;51.388;6.196;2022-12-24T12:21:24;34.23;;;7.17;;
14040;SDS011;7095;51.388;6.196;2022-12-24T12:23:56;35.53;;;7.40;;
14040;SDS011;7095;51.388;6.196;2022-12-24T12:26:30;38.40;;;7.80;;
14040;SDS011;7095;51.388;6.196;2022-12-24T12:29:01;32.40;;;8.10;;
14040;SDS011;7095;51.388;6.196;2022-12-24T12:31:40;42.00;;;8.30;;
14040;SDS011;7095;51.388;6.196;2022-12-24T12:34:12;32.27;;;7.60;;
14040;SDS011;7095;51.388;6.196;2022-12-24T12:36:47;36.13;;;7.90;;
14040;SDS011;7095;51.388;6.196;2022-12-24T12:39:18;28.43;;;7.00;;
14040;SDS011;7095;51.388;6.196;2022-12-24T12:41:49;31.77;;;7.30;;
14040;SDS011;7095;51.388;6.196;2022-12-24T12:44:27;34.83;;;7.23;;
14040;SDS011;7095;51.388;6.196;2022-12-24T12:47:15;36.83;;;7.20;;
14040;SDS011;7095;51.388;6.196;2022-12-24T12:50:00;40.77;;;7.70;;
14040;SDS011;7095;51.388;6.196;2022-12-24T12:52:43;27.30;;;7.43;;
14040;SDS011;7095;51.388;6.196;2022-12-24T12:55:23;29.47;;;6.97;;
14040;SDS011;7095;51.388;6.196;2022-12-24T12:58:05;27.97;;;6.73;;
14040;SDS011;7095;51.388;6.196;2022-12-24T13:00:41;26.97;;;6.07;;
14040;SDS011;7095;51.388;6.196;2022-12-24T13:03:27;23.97;;;6.10;;
14040;SDS011;7095;51.388;6.196;2022-12-24T13:12:21;26.67;;;6.17;;
14040;SDS011;7095;51.388;6.196;2022-12-24T13:15:05;28.10;;;7.13;;
14040;SDS011;7095;51.388;6.196;2022-12-24T13:20:59;28.10;;;7.20;;
14040;SDS011;7095;51.388;6.196;2022-12-24T13:23:27;42.13;;;7.77;;
14040;SDS011;7095;51.388;6.196;2022-12-24T13:25:57;26.27;;;7.07;;
14040;SDS011;7095;51.388;6.196;2022-12-24T13:28:33;31.63;;;7.10;;
14040;SDS011;7095;51.388;6.196;2022-12-24T13:33:57;26.63;;;6.23;;
14040;SDS011;7095;51.388;6.196;2022-12-24T13:42:50;23.70;;;6.33;;
14040;SDS011;7095;51.388;6.196;2022-12-24T13:48:13;24.97;;;5.87;;
14040;SDS011;7095;51.388;6.196;2022-12-24T13:51:00;21.97;;;5.30;;
14040;SDS011;7095;51.388;6.196;2022-12-24T13:53:46;25.97;;;6.30;;
14040;SDS011;7095;51.388;6.196;2022-12-24T13:56:21;22.37;;;5.87;;
14040;SDS011;7095;51.388;6.196;2022-12-24T13:58:55;20.73;;;5.50;;
14040;SDS011;7095;51.388;6.196;2022-12-24T14:01:39;21.13;;;5.47;;
14040;SDS011;7095;51.388;6.196;2022-12-24T14:04:19;20.53;;;5.90;;
14040;SDS011;7095;51.388;6.196;2022-12-24T14:06:51;24.40;;;5.87;;
14040;SDS011;7095;51.388;6.196;2022-12-24T14:09:21;18.90;;;5.57;;
14040;SDS011;7095;51.388;6.196;2022-12-24T14:14:47;23.30;;;5.33;;
14040;SDS011;7095;51.388;6.196;2022-12-24T14:17:20;20.53;;;5.97;;
14040;SDS011;7095;51.388;6.196;2022-12-24T14:19:53;23.87;;;5.80;;
14040;SDS011;7095;51.388;6.196;2022-12-24T14:22:27;21.17;;;5.73;;
14040;SDS011;7095;51.388;6.196;2022-12-24T14:24:58;22.67;;;5.47;;
14040;SDS011;7095;51.388;6.196;2022-12-24T14:27:31;25.60;;;6.07;;
14040;SDS011;7095;51.388;6.196;2022-12-24T14:30:07;26.27;;;6.33;;
14040;SDS011;7095;51.388;6.196;2022-12-24T14:32:47;26.20;;;5.63;;
14040;SDS011;7095;51.388;6.196;2022-12-24T14:35:18;24.40;;;5.97;;
14040;SDS011;7095;51.388;6.196;2022-12-24T14:37:49;32.87;;;6.73;;
14040;SDS011;7095;51.388;6.196;2022-12-24T14:40:25;24.70;;;6.70;;
14040;SDS011;7095;51.388;6.196;2022-12-24T14:42:56;23.33;;;5.60;;
14040;SDS011;7095;51.388;6.196;2022-12-24T14:45:36;25.03;;;6.20;;
14040;SDS011;7095;51.388;6.196;2022-12-24T14:48:14;24.20;;;6.57;;
14040;SDS011;7095;51.388;6.196;2022-12-24T14:50:53;22.53;;;6.00;;
14040;SDS011;7095;51.388;6.196;2022-12-24T14:53:35;31.37;;;6.00;;
14040;SDS011;7095;51.388;6.196;2022-12-24T14:56:21;23.77;;;6.50;;
14040;SDS011;7095;51.388;6.196;2022-12-24T14:58:51;26.30;;;5.90;;
14040;SDS011;7095;51.388;6.196;2022-12-24T15:01:22;27.77;;;5.40;;
14040;SDS011;7095;51.388;6.196;2022-12-24T15:04:00;26.57;;;6.13;;
14040;SDS011;7095;51.388;6.196;2022-12-24T15:06:32;23.53;;;5.50;;
14040;SDS011;7095;51.388;6.196;2022-12-24T15:09:02;27.27;;;5.70;;
14040;SDS011;7095;51.388;6.196;2022-12-24T15:11:32;29.07;;;6.20;;
14040;SDS011;7095;51.388;6.196;2022-12-24T15:14:00;20.57;;;5.63;;
14040;SDS011;7095;51.388;6.196;2022-12-24T15:16:31;27.30;;;6.47;;
14040;SDS011;7095;51.388;6.196;2022-12-24T15:19:03;23.17;;;6.43;;
14040;SDS011;7095;51.388;6.196;2022-12-24T15:21:35;25.17;;;6.47;;
14040;SDS011;7095;51.388;6.196;2022-12-24T15:24:22;28.90;;;6.03;;
14040;SDS011;7095;51.388;6.196;2022-12-24T15:26:52;36.10;;;6.77;;
14040;SDS011;7095;51.388;6.196;2022-12-24T15:29:22;26.87;;;6.83;;
14040;SDS011;7095;51.388;6.196;2022-12-24T15:31:56;22.00;;;6.07;;
14040;SDS011;7095;51.388;6.196;2022-12-24T15:34:28;37.73;;;6.70;;
14040;SDS011;7095;51.388;6.196;2022-12-24T15:37:02;26.67;;;7.30;;
14040;SDS011;7095;51.388;6.196;2022-12-24T15:39:33;36.40;;;12.47;;
14040;SDS011;7095;51.388;6.196;2022-12-24T15:42:02;42.67;;;17.53;;
14040;SDS011;7095;51.388;6.196;2022-12-24T15:44:41;29.60;;;12.27;;
14040;SDS011;7095;51.388;6.196;2022-12-24T15:47:18;37.37;;;11.20;;